Terminal Aerodrome Forecast
Issued by NWS

Home | Current Version | Previous Version | Text Only | Print | Product List | Glossary On
Versions: 1 2 3 4 5 6 7 8 9 10 11 12 13 14 15 16 17 18 19 20 21 22 23 24 25 26 27 28 29 30 31 32 33 34 35 36 37 38 39 40 41 42 43
000
FTUS41 KBTV 290100 AAA
TAFPBG
TAF AMD
KPBG 290123Z 2901/2924 33013KT P6SM -RA OVC015
      TEMPO 2901/2904 2SM -RA BR OVC008
     FM290400 33010KT P6SM VCSH OVC008
     FM290800 33005KT P6SM OVC020
     FM291400 28008KT P6SM SCT030=

USA.gov is the U.S. government's official web portal to all federal, state and local government web resources and services.